createdAt,value
2022-10-27T00:01:14.092Z,102071.50
2022-10-27T00:04:35.762Z,102072.75
2022-10-27T00:07:57.376Z,102075.66
2022-10-27T00:11:19.490Z,102075.84
2022-10-27T00:14:42.262Z,102079.66
2022-10-27T00:18:10.872Z,102078.78
2022-10-27T00:21:32.375Z,102091.44
2022-10-27T00:24:53.733Z,102087.06
2022-10-27T00:28:15.164Z,102096.16
2022-10-27T00:31:37.122Z,102098.06
2022-10-27T00:35:00.095Z,102106.03
2022-10-27T00:38:22.608Z,102109.47
2022-10-27T00:41:45.059Z,102119.22
2022-10-27T00:45:07.716Z,102123.78
2022-10-27T00:48:31.634Z,102114.19
2022-10-27T00:51:58.110Z,102136.31
2022-10-27T00:55:23.552Z,102135.63
2022-10-27T00:58:46.189Z,102131.44
2022-10-27T01:02:10.923Z,102134.28
2022-10-27T01:05:32.491Z,102127.44
2022-10-27T01:08:55.755Z,102142.78
2022-10-27T01:12:17.466Z,102145.63
2022-10-27T01:15:55.191Z,102131.56
2022-10-27T01:19:38.070Z,102135.34
2022-10-27T01:23:04.227Z,102136.19
2022-10-27T01:26:44.847Z,102147.69
2022-10-27T01:30:09.308Z,102146.94
2022-10-27T01:33:38.700Z,102143.56
2022-10-27T01:37:11.931Z,102129.63
2022-10-27T01:40:41.170Z,102142.91
2022-10-27T01:44:08.264Z,102155.91
2022-10-27T01:47:31.083Z,102155.91
2022-10-27T01:51:01.428Z,102163.81
2022-10-27T01:54:23.655Z,102163.81
2022-10-27T01:58:06.825Z,102163.13
2022-10-27T02:01:45.104Z,102176.50
2022-10-27T02:05:10.767Z,102166.84
2022-10-27T02:08:41.474Z,102176.66
2022-10-27T02:12:09.538Z,102178.47
2022-10-27T02:15:34.192Z,102182.16
2022-10-27T02:19:02.449Z,102181.38
2022-10-27T02:22:28.117Z,102188.41
2022-10-27T02:25:57.430Z,102192.00
2022-10-27T02:29:26.118Z,102194.66
2022-10-27T02:32:48.271Z,102197.50
2022-10-27T02:36:10.120Z,102186.19
2022-10-27T02:39:31.681Z,102184.56
2022-10-27T02:42:54.846Z,102195.34
2022-10-27T02:46:16.461Z,102199.13
2022-10-27T02:49:37.912Z,102188.66
2022-10-27T02:52:59.726Z,102188.84
2022-10-27T02:56:21.436Z,102194.16
2022-10-27T02:59:48.179Z,102188.84
2022-10-27T03:03:12.661Z,102195.94
2022-10-27T03:06:33.868Z,102200.47
2022-10-27T03:09:55.502Z,102203.31
2022-10-27T03:13:16.881Z,102205.00
2022-10-27T03:16:40.047Z,102215.56
2022-10-27T03:20:02.306Z,102221.72
2022-10-27T03:23:23.684Z,102224.47
2022-10-27T03:26:45.363Z,102221.91
2022-10-27T03:30:08.297Z,102225.50
2022-10-27T03:33:31.042Z,102222.06
2022-10-27T03:36:52.673Z,102231.81
2022-10-27T03:40:13.994Z,102238.00
2022-10-27T03:43:35.692Z,102233.47
2022-10-27T03:46:57.388Z,102235.28
2022-10-27T03:50:20.694Z,102242.44
2022-10-27T03:53:42.801Z,102246.13
2022-10-27T03:57:04.525Z,102239.94
2022-10-27T04:00:28.665Z,102253.22
2022-10-27T04:03:50.264Z,102247.91
2022-10-27T04:07:13.011Z,102251.50
2022-10-27T04:10:34.295Z,102248.09
2022-10-27T04:13:55.663Z,102252.56
2022-10-27T04:17:17.715Z,102252.63
2022-10-27T04:20:39.293Z,102257.94
2022-10-27T04:24:01.894Z,102268.66
2022-10-27T04:27:23.212Z,102275.75
2022-10-27T04:30:44.524Z,102277.63
2022-10-27T04:34:11.569Z,102272.25
2022-10-27T04:37:33.057Z,102279.34
2022-10-27T04:40:55.693Z,102280.22
2022-10-27T04:44:17.379Z,102284.81
2022-10-27T04:47:39.139Z,102282.31
2022-10-27T04:51:00.879Z,102292.16
2022-10-27T04:54:22.224Z,102278.88
2022-10-27T04:57:45.313Z,102285.03
2022-10-27T05:01:08.877Z,102291.16
2022-10-27T05:04:30.322Z,102293.66
2022-10-27T05:07:55.397Z,102299.81
2022-10-27T05:11:16.877Z,102303.50
2022-10-27T05:14:39.775Z,102315.19
2022-10-27T05:18:01.668Z,102310.00
2022-10-27T05:21:23.866Z,102316.19
2022-10-27T05:24:45.253Z,102322.31
2022-10-27T05:28:08.939Z,102317.97
2022-10-27T05:31:32.165Z,102323.53
2022-10-27T05:35:06.646Z,102327.97
2022-10-27T05:38:28.367Z,102332.59
2022-10-27T05:41:50.062Z,102329.16
2022-10-27T05:45:11.740Z,102331.88
2022-10-27T05:48:35.222Z,102334.63
2022-10-27T05:51:56.613Z,102334.63
2022-10-27T05:55:18.379Z,102331.97
2022-10-27T05:58:39.999Z,102340.78
2022-10-27T06:02:01.657Z,102347.75
2022-10-27T06:05:24.867Z,102349.47
2022-10-27T06:08:46.519Z,102344.94
2022-10-27T06:12:08.539Z,102348.38
2022-10-27T06:15:30.533Z,102350.16
2022-10-27T06:18:53.116Z,102364.28
2022-10-27T06:22:16.691Z,102357.13
2022-10-27T06:25:38.268Z,102367.56
2022-10-27T06:28:59.986Z,102373.72
2022-10-27T06:32:21.795Z,102371.03
2022-10-27T06:35:43.728Z,102379.78
2022-10-27T06:39:06.414Z,102378.91
2022-10-27T06:42:43.084Z,102382.50
2022-10-27T06:46:12.185Z,102388.59
2022-10-27T06:49:33.964Z,102386.81
2022-10-27T06:52:55.284Z,102385.66
2022-10-27T06:56:21.294Z,102386.28
2022-10-27T06:59:43.129Z,102395.81
2022-10-27T07:06:35.999Z,102400.75
2022-10-27T07:09:57.970Z,102397.84
2022-10-27T07:13:20.512Z,102404.66
2022-10-27T07:16:42.551Z,102414.00
2022-10-27T07:20:04.375Z,102415.41
2022-10-27T07:23:28.692Z,102414.31
2022-10-27T07:26:50.740Z,102412.13
2022-10-27T07:30:16.966Z,102416.09
2022-10-27T07:33:39.883Z,102411.31
2022-10-27T07:37:01.691Z,102404.72
2022-10-27T07:40:30.625Z,102414.84
2022-10-27T07:44:16.834Z,102422.38
2022-10-27T07:47:43.440Z,102418.25
2022-10-27T07:51:13.891Z,102407.09
2022-10-27T07:54:35.722Z,102418.09
2022-10-27T07:58:08.601Z,102422.06
2022-10-27T08:01:30.669Z,102418.88
2022-10-27T08:04:55.004Z,102422.72
2022-10-27T08:08:16.909Z,102411.91
2022-10-27T08:11:43.398Z,102419.41
2022-10-27T08:15:07.319Z,102411.06
2022-10-27T08:18:42.123Z,102413.25
2022-10-27T08:22:04.906Z,102417.22
2022-10-27T08:25:27.906Z,102429.94
2022-10-27T08:28:49.328Z,102434.81
2022-10-27T08:32:11.711Z,102431.50
2022-10-27T08:35:39.215Z,102422.09
2022-10-27T08:39:04.625Z,102428.69
2022-10-27T08:42:57.661Z,102426.34
2022-10-27T08:46:37.726Z,102422.94
2022-10-27T08:50:05.519Z,102440.94
2022-10-27T08:53:31.802Z,102441.25
2022-10-27T08:56:58.956Z,102445.81
2022-10-27T09:00:20.365Z,102449.34
2022-10-27T09:03:59.857Z,102446.97
2022-10-27T09:07:33.074Z,102456.53
2022-10-27T09:11:05.824Z,102447.69
2022-10-27T09:14:59.979Z,102460.91
2022-10-27T09:18:31.879Z,102456.19
2022-10-27T09:21:54.554Z,102455.19
2022-10-27T09:25:25.221Z,102449.75
2022-10-27T09:28:52.232Z,102446.03
2022-10-27T09:32:23.236Z,102444.16
2022-10-27T09:35:44.961Z,102446.53
2022-10-27T09:39:06.680Z,102443.88
2022-10-27T09:42:30.409Z,102448.16
2022-10-27T09:46:00.367Z,102459.69
2022-10-27T09:49:28.950Z,102451.34
2022-10-27T09:52:50.462Z,102447.75
2022-10-27T09:56:20.365Z,102453.00
2022-10-27T09:59:43.788Z,102455.59
2022-10-27T10:03:07.078Z,102449.22
2022-10-27T10:06:36.716Z,102457.13
2022-10-27T10:10:28.721Z,102454.38
2022-10-27T10:14:04.170Z,102449.91
2022-10-27T10:17:28.790Z,102454.25
2022-10-27T10:20:57.618Z,102449.88
2022-10-27T10:24:24.107Z,102449.19
2022-10-27T10:27:56.470Z,102436.75
2022-10-27T10:31:30.206Z,102441.16
2022-10-27T10:34:53.816Z,102434.22
2022-10-27T10:38:37.461Z,102434.94
2022-10-27T10:42:21.136Z,102437.75
2022-10-27T10:45:43.766Z,102443.25
2022-10-27T10:49:21.987Z,102442.63
2022-10-27T10:52:53.739Z,102450.06
2022-10-27T10:56:25.691Z,102451.19
2022-10-27T10:59:51.085Z,102440.66
2022-10-27T11:03:19.012Z,102437.72
2022-10-27T11:06:59.242Z,102437.09
2022-10-27T11:10:26.338Z,102435.50
2022-10-27T11:13:53.129Z,102437.56
2022-10-27T11:17:18.372Z,102435.09
2022-10-27T11:20:45.586Z,102419.88
2022-10-27T11:24:15.660Z,102422.75
2022-10-27T11:27:46.482Z,102434.72
2022-10-27T11:35:05.769Z,102424.75
2022-10-27T11:38:39.548Z,102416.03
2022-10-27T11:42:13.407Z,102421.75
2022-10-27T11:45:41.445Z,102421.22
2022-10-27T11:49:12.355Z,102423.41
2022-10-27T11:52:47.261Z,102425.44
2022-10-27T11:56:31.406Z,102412.28
2022-10-27T12:00:04.643Z,102416.41
2022-10-27T12:04:04.053Z,102415.03
2022-10-27T12:07:43.470Z,102412.66
2022-10-27T12:11:21.471Z,102416.63
2022-10-27T12:14:52.930Z,102403.50
2022-10-27T12:18:23.122Z,102396.72
2022-10-27T12:21:51.564Z,102394.59
2022-10-27T12:25:21.499Z,102391.50
2022-10-27T12:28:58.932Z,102393.78
2022-10-27T12:32:24.003Z,102386.13
2022-10-27T12:35:54.786Z,102378.88
2022-10-27T12:39:26.021Z,102382.00
2022-10-27T12:46:54.199Z,102374.13
2022-10-27T12:50:29.996Z,102371.84
2022-10-27T12:54:03.446Z,102374.97
2022-10-27T13:01:35.612Z,102363.38
2022-10-27T13:05:31.098Z,102360.97
2022-10-27T13:13:31.668Z,102364.09
2022-10-27T13:17:01.808Z,102348.47
2022-10-27T13:20:43.972Z,102343.78
2022-10-27T13:24:22.015Z,102354.16
2022-10-27T13:27:53.121Z,102353.72
2022-10-27T13:31:21.387Z,102348.88
2022-10-27T13:38:26.993Z,102346.47
2022-10-27T13:41:54.148Z,102341.63
2022-10-27T13:45:50.177Z,102339.66
2022-10-27T13:49:49.721Z,102336.78
2022-10-27T13:53:44.897Z,102332.97
2022-10-27T13:57:40.157Z,102327.28
2022-10-27T14:01:34.794Z,102336.91
2022-10-27T14:05:03.523Z,102336.91
2022-10-27T14:08:29.468Z,102337.78
2022-10-27T14:11:54.460Z,102333.38
2022-10-27T14:15:21.165Z,102322.72
2022-10-27T14:18:42.785Z,102324.59
2022-10-27T14:22:08.522Z,102322.88
2022-10-27T14:25:34.917Z,102319.47
2022-10-27T14:28:58.475Z,102316.78
2022-10-27T14:32:21.229Z,102318.47
2022-10-27T14:35:43.961Z,102320.19
2022-10-27T14:39:22.460Z,102317.63
2022-10-27T14:42:47.164Z,102312.50
2022-10-27T14:46:20.885Z,102319.91
2022-10-27T14:49:47.990Z,102316.63
2022-10-27T14:53:27.478Z,102313.69
2022-10-27T14:56:52.509Z,102313.41
2022-10-27T15:00:26.657Z,102307.88
2022-10-27T15:03:49.979Z,102316.69
2022-10-27T15:07:20.021Z,102309.59
2022-10-27T15:10:46.683Z,102307.75
2022-10-27T15:14:15.288Z,102304.19
2022-10-27T15:17:38.223Z,102304.31
2022-10-27T15:21:03.255Z,102297.22
2022-10-27T15:24:33.089Z,102305.28
2022-10-27T15:27:56.081Z,102298.03
2022-10-27T15:31:19.532Z,102294.59
2022-10-27T15:34:44.997Z,102301.66
2022-10-27T15:38:25.623Z,102306.28
2022-10-27T15:41:50.910Z,102299.91
2022-10-27T15:45:33.104Z,102304.38
2022-10-27T15:49:15.294Z,102294.41
2022-10-27T15:52:57.613Z,102293.50
2022-10-27T15:56:40.343Z,102293.72
2022-10-27T16:00:16.124Z,102290.97
2022-10-27T16:07:34.940Z,102280.22
2022-10-27T16:11:00.259Z,102281.88
2022-10-27T16:14:23.467Z,102282.53
2022-10-27T16:17:47.979Z,102281.22
2022-10-27T16:21:25.600Z,102285.41
2022-10-27T16:24:47.870Z,102291.31
2022-10-27T16:28:17.802Z,102282.16
2022-10-27T16:31:41.916Z,102284.63
2022-10-27T16:35:05.526Z,102291.50
2022-10-27T16:38:28.131Z,102284.16
2022-10-27T16:41:58.394Z,102285.81
2022-10-27T16:45:31.730Z,102284.56
2022-10-27T16:49:26.988Z,102279.97
2022-10-27T16:52:58.532Z,102292.19
2022-10-27T17:00:00.518Z,102288.06
2022-10-27T17:03:22.106Z,102292.19
2022-10-27T17:06:45.330Z,102291.00
2022-10-27T17:10:08.208Z,102289.78
2022-10-27T17:13:34.003Z,102292.94
2022-10-27T17:16:55.692Z,102294.41
2022-10-27T17:20:17.586Z,102294.13
2022-10-27T17:23:44.616Z,102292.88
2022-10-27T17:27:07.173Z,102281.81
2022-10-27T17:30:35.052Z,102283.97
2022-10-27T17:33:59.758Z,102273.63
2022-10-27T17:37:21.439Z,102266.06
2022-10-27T17:40:53.155Z,102262.13
2022-10-27T17:44:15.319Z,102257.00
2022-10-27T17:47:37.284Z,102256.50
2022-10-27T17:51:04.916Z,102255.91
2022-10-27T17:54:26.555Z,102251.63
2022-10-27T17:57:49.978Z,102250.16
2022-10-27T18:01:13.493Z,102243.31
2022-10-27T18:04:36.269Z,102233.69
2022-10-27T18:07:58.094Z,102233.94
2022-10-27T18:11:24.922Z,102235.13
2022-10-27T18:14:48.320Z,102243.16
2022-10-27T18:18:12.363Z,102241.47
2022-10-27T18:21:36.131Z,102241.47
2022-10-27T18:24:59.528Z,102253.25
2022-10-27T18:28:21.447Z,102249.00
2022-10-27T18:31:44.806Z,102242.16
2022-10-27T18:35:07.689Z,102245.19
2022-10-27T18:38:29.302Z,102243.63
2022-10-27T18:41:54.960Z,102240.28
2022-10-27T18:45:17.224Z,102249.41
2022-10-27T18:48:49.340Z,102235.50
2022-10-27T18:52:14.394Z,102230.38
2022-10-27T18:55:37.590Z,102231.72
2022-10-27T18:59:02.019Z,102233.66
2022-10-27T19:02:28.387Z,102230.34
2022-10-27T19:06:01.219Z,102220.72
2022-10-27T19:09:25.407Z,102223.63
2022-10-27T19:12:47.238Z,102224.94
2022-10-27T19:16:12.680Z,102219.91
2022-10-27T19:19:39.754Z,102220.13
2022-10-27T19:23:05.679Z,102228.47
2022-10-27T19:26:33.609Z,102224.44
2022-10-27T19:29:55.362Z,102221.88
2022-10-27T19:33:20.438Z,102226.63
2022-10-27T19:36:47.171Z,102219.75
2022-10-27T19:40:11.899Z,102228.97
2022-10-27T19:43:33.873Z,102219.59
2022-10-27T19:47:03.208Z,102222.59
2022-10-27T19:50:25.200Z,102219.25
2022-10-27T19:53:48.898Z,102225.81
2022-10-27T19:57:14.623Z,102221.66
2022-10-27T20:00:36.351Z,102214.81
2022-10-27T20:04:03.779Z,102212.34
2022-10-27T20:07:31.183Z,102203.69
2022-10-27T20:10:52.958Z,102204.88
2022-10-27T20:14:24.399Z,102213.13
2022-10-27T20:17:49.251Z,102212.59
2022-10-27T20:21:11.256Z,102208.53
2022-10-27T20:24:36.462Z,102199.91
2022-10-27T20:27:58.563Z,102194.63
2022-10-27T20:31:26.271Z,102199.38
2022-10-27T20:34:48.229Z,102189.84
2022-10-27T20:38:10.456Z,102189.22
2022-10-27T20:41:36.225Z,102191.22
2022-10-27T20:44:58.333Z,102192.41
2022-10-27T20:48:25.633Z,102194.56
2022-10-27T20:51:47.215Z,102178.66
2022-10-27T20:55:09.299Z,102176.19
2022-10-27T20:58:31.382Z,102174.56
2022-10-27T21:01:54.985Z,102170.41
2022-10-27T21:08:47.828Z,102157.50
2022-10-27T21:12:12.275Z,102154.16
2022-10-27T21:15:36.985Z,102144.66
2022-10-27T21:19:02.135Z,102151.28
2022-10-27T21:22:25.386Z,102150.66
2022-10-27T21:25:53.021Z,102141.00
2022-10-27T21:29:14.778Z,102135.13
2022-10-27T21:32:36.313Z,102136.16
2022-10-27T21:35:57.533Z,102136.28
2022-10-27T21:39:20.407Z,102133.84
2022-10-27T21:42:42.671Z,102133.94
2022-10-27T21:46:04.135Z,102124.34
2022-10-27T21:49:25.893Z,102127.97
2022-10-27T21:52:47.292Z,102135.09
2022-10-27T21:56:12.489Z,102126.47
2022-10-27T21:59:34.182Z,102121.13
2022-10-27T22:02:55.479Z,102119.41
2022-10-27T22:06:19.337Z,102122.19
2022-10-27T22:09:41.149Z,102127.50
2022-10-27T22:13:04.103Z,102117.06
2022-10-27T22:16:27.830Z,102119.72
2022-10-27T22:19:49.295Z,102111.81
2022-10-27T22:23:10.934Z,102106.47
2022-10-27T22:26:33.973Z,102106.59
2022-10-27T22:29:56.851Z,102109.25
2022-10-27T22:33:18.679Z,102109.34
2022-10-27T22:36:39.892Z,102111.25
2022-10-27T22:40:01.189Z,102112.13
2022-10-27T22:43:22.953Z,102111.25
2022-10-27T22:46:45.835Z,102105.19
2022-10-27T22:50:07.829Z,102101.69
2022-10-27T22:53:33.364Z,102110.72
2022-10-27T22:56:54.589Z,102109.13
2022-10-27T23:00:16.854Z,102105.81
2022-10-27T23:03:39.946Z,102106.78
2022-10-27T23:07:01.687Z,102104.19
2022-10-27T23:10:23.006Z,102089.34
2022-10-27T23:13:44.761Z,102091.41
2022-10-27T23:17:06.378Z,102088.81
2022-10-27T23:20:29.473Z,102086.06
2022-10-27T23:23:51.803Z,102075.47
2022-10-27T23:27:13.107Z,102083.59
2022-10-27T23:30:35.119Z,102083.47
2022-10-27T23:33:57.880Z,102078.06
2022-10-27T23:37:20.780Z,102080.72
2022-10-27T23:40:49.093Z,102076.22
2022-10-27T23:44:10.883Z,102072.59
2022-10-27T23:47:32.343Z,102061.84
2022-10-27T23:50:53.791Z,102056.38
2022-10-27T23:54:16.783Z,102058.09
2022-10-27T23:57:38.395Z,102058.97
